createdAt,value
2023-07-24T00:00:21.198Z,4.75
2023-07-24T00:02:47.798Z,2.13
2023-07-24T00:05:14.385Z,2.53
2023-07-24T00:07:40.917Z,2.50
2023-07-24T00:10:07.735Z,3.08
2023-07-24T00:12:34.227Z,2.00
2023-07-24T00:15:00.665Z,4.65
2023-07-24T00:17:27.064Z,2.50
2023-07-24T00:19:53.457Z,2.65
2023-07-24T00:22:19.918Z,3.10
2023-07-24T00:24:46.366Z,2.70
2023-07-24T00:27:12.905Z,2.70
2023-07-24T00:29:39.255Z,4.18
2023-07-24T00:32:06.190Z,2.70
2023-07-24T00:34:32.628Z,2.88
2023-07-24T00:36:59.065Z,3.50
2023-07-24T00:39:25.431Z,2.42
2023-07-24T00:41:51.805Z,3.80
2023-07-24T00:44:19.805Z,2.38
2023-07-24T00:46:46.674Z,4.15
2023-07-24T00:49:14.068Z,3.25
2023-07-24T00:51:41.128Z,3.25
2023-07-24T00:54:08.269Z,2.25
2023-07-24T00:56:35.464Z,2.70
2023-07-24T00:59:02.268Z,2.97
2023-07-24T01:01:30.133Z,3.63
2023-07-24T01:03:57.925Z,4.30
2023-07-24T01:06:24.741Z,4.00
2023-07-24T01:08:51.165Z,3.72
2023-07-24T01:11:20.874Z,4.80
2023-07-24T01:13:57.088Z,3.45
2023-07-24T01:16:27.116Z,4.88
2023-07-24T01:18:57.004Z,3.90
2023-07-24T01:21:34.834Z,3.95
2023-07-24T01:24:19.342Z,6.35
2023-07-24T01:26:45.979Z,3.88
2023-07-24T01:29:12.354Z,3.35
2023-07-24T01:31:38.818Z,3.35
2023-07-24T01:34:05.221Z,5.47
2023-07-24T01:36:32.269Z,2.80
2023-07-24T01:38:59.905Z,4.68
2023-07-24T01:41:26.962Z,3.88
2023-07-24T01:43:53.515Z,5.28
2023-07-24T01:46:19.933Z,3.90
2023-07-24T01:48:47.511Z,2.75
2023-07-24T01:51:13.932Z,5.60
2023-07-24T01:53:40.366Z,4.25
2023-07-24T01:56:06.759Z,3.42
2023-07-24T01:58:33.127Z,7.15
2023-07-24T02:00:59.489Z,4.82
2023-07-24T02:03:25.946Z,4.75
2023-07-24T02:05:52.585Z,6.90
2023-07-24T02:08:19.049Z,4.47
2023-07-24T02:10:49.694Z,6.07
2023-07-24T02:13:16.070Z,5.97
2023-07-24T02:15:42.450Z,3.95
2023-07-24T02:18:08.901Z,6.53
2023-07-24T02:20:35.282Z,6.95
2023-07-24T02:23:01.744Z,11.43
2023-07-24T02:25:28.146Z,7.40
2023-07-24T02:27:54.519Z,5.38
2023-07-24T02:30:20.956Z,5.43
2023-07-24T02:32:47.409Z,5.75
2023-07-24T02:35:13.791Z,5.20
2023-07-24T02:37:40.179Z,5.70
2023-07-24T02:40:07.327Z,5.78
2023-07-24T02:42:33.726Z,6.88
2023-07-24T02:45:00.303Z,5.70
2023-07-24T02:47:26.739Z,9.63
2023-07-24T02:49:53.151Z,5.75
2023-07-24T02:52:19.540Z,7.45
2023-07-24T02:54:45.983Z,8.20
2023-07-24T02:57:12.409Z,7.15
2023-07-24T02:59:38.772Z,6.53
2023-07-24T03:02:05.263Z,6.68
2023-07-24T03:04:32.131Z,7.07
2023-07-24T03:06:58.505Z,6.22
2023-07-24T03:09:24.901Z,5.45
2023-07-24T03:11:51.350Z,5.63
2023-07-24T03:14:17.794Z,9.20
2023-07-24T03:16:44.178Z,5.00
2023-07-24T03:19:10.625Z,11.48
2023-07-24T03:21:37.080Z,5.35
2023-07-24T03:24:06.067Z,4.53
2023-07-24T03:26:32.817Z,6.07
2023-07-24T03:28:59.345Z,5.30
2023-07-24T03:31:25.736Z,5.40
2023-07-24T03:33:52.268Z,6.30
2023-07-24T03:36:18.740Z,5.55
2023-07-24T03:38:45.108Z,6.13
2023-07-24T03:41:11.602Z,5.13
2023-07-24T03:43:37.975Z,8.85
2023-07-24T03:46:04.465Z,8.75
2023-07-24T03:48:30.900Z,3.80
2023-07-24T03:51:03.543Z,6.65
2023-07-24T03:53:30.143Z,5.18
2023-07-24T03:55:59.343Z,6.70
2023-07-24T03:58:25.734Z,8.10
2023-07-24T04:00:52.142Z,5.60
2023-07-24T04:03:18.640Z,6.85
2023-07-24T04:05:45.129Z,5.20
2023-07-24T04:08:11.632Z,4.07
2023-07-24T04:10:38.029Z,7.30
2023-07-24T04:13:04.413Z,3.83
2023-07-24T04:15:30.896Z,4.30
2023-07-24T04:17:57.411Z,3.83
2023-07-24T04:20:23.826Z,3.67
2023-07-24T04:22:50.252Z,3.83
2023-07-24T04:25:16.801Z,3.03
2023-07-24T04:27:43.257Z,2.92
2023-07-24T04:30:09.968Z,2.55
2023-07-24T04:32:36.462Z,3.05
2023-07-24T04:35:03.205Z,2.90
2023-07-24T04:37:29.570Z,6.07
2023-07-24T04:39:56.250Z,3.72
2023-07-24T04:42:22.711Z,4.03
2023-07-24T04:44:51.027Z,5.22
2023-07-24T04:47:17.426Z,2.97
2023-07-24T04:49:43.857Z,4.20
2023-07-24T04:52:10.248Z,3.67
2023-07-24T04:54:36.614Z,3.58
2023-07-24T04:57:03.246Z,3.63
2023-07-24T04:59:29.643Z,4.60
2023-07-24T05:01:57.001Z,3.53
2023-07-24T05:04:23.575Z,4.68
2023-07-24T05:06:49.995Z,4.60
2023-07-24T05:09:16.437Z,4.15
2023-07-24T05:11:45.586Z,3.55
2023-07-24T05:14:12.438Z,9.40
2023-07-24T05:16:38.933Z,7.38
2023-07-24T05:19:05.341Z,5.28
2023-07-24T05:21:32.041Z,3.25
2023-07-24T05:23:58.507Z,4.90
2023-07-24T05:26:24.985Z,4.03
2023-07-24T05:28:51.365Z,6.65
2023-07-24T05:31:17.874Z,3.53
2023-07-24T05:33:44.253Z,4.35
2023-07-24T05:36:10.678Z,4.13
2023-07-24T05:38:37.161Z,5.68
2023-07-24T05:41:04.717Z,4.03
2023-07-24T05:43:32.020Z,5.20
2023-07-24T05:45:58.989Z,3.83
2023-07-24T05:48:25.890Z,4.60
2023-07-24T05:50:52.721Z,5.40
2023-07-24T05:53:19.167Z,3.42
2023-07-24T05:55:45.617Z,4.03
2023-07-24T05:58:12.465Z,5.93
2023-07-24T06:00:38.978Z,4.40
2023-07-24T06:03:07.936Z,5.15
2023-07-24T06:05:34.993Z,5.03
2023-07-24T06:08:01.385Z,5.45
2023-07-24T06:10:27.829Z,4.38
2023-07-24T06:12:54.260Z,3.53
2023-07-24T06:15:20.654Z,6.35
2023-07-24T06:17:47.125Z,6.28
2023-07-24T06:20:13.584Z,5.82
2023-07-24T06:22:40.007Z,4.88
2023-07-24T06:25:06.714Z,6.43
2023-07-24T06:27:33.094Z,5.63
2023-07-24T06:30:09.279Z,5.95
2023-07-24T06:32:41.467Z,6.03
2023-07-24T06:35:08.262Z,8.70
2023-07-24T06:37:34.680Z,5.78
2023-07-24T06:40:01.146Z,11.30
2023-07-24T06:42:27.537Z,5.72
2023-07-24T06:44:53.976Z,6.00
2023-07-24T06:47:20.501Z,9.15
2023-07-24T06:49:47.971Z,6.07
2023-07-24T06:52:14.504Z,6.45
2023-07-24T06:54:40.913Z,6.28
2023-07-24T06:57:07.373Z,7.90
2023-07-24T06:59:34.023Z,5.45
2023-07-24T07:02:00.440Z,6.65
2023-07-24T07:04:26.929Z,7.70
2023-07-24T07:06:53.318Z,7.85
2023-07-24T07:09:19.766Z,5.97
2023-07-24T07:11:46.180Z,6.68
2023-07-24T07:14:13.698Z,7.25
2023-07-24T07:16:40.422Z,6.00
2023-07-24T07:19:06.850Z,4.90
2023-07-24T07:21:33.242Z,5.45
2023-07-24T07:23:59.687Z,5.97
2023-07-24T07:26:26.355Z,7.53
2023-07-24T07:28:52.893Z,6.97
2023-07-24T07:31:19.401Z,7.93
2023-07-24T07:33:45.799Z,7.20
2023-07-24T07:36:13.274Z,9.48
2023-07-24T07:38:40.743Z,9.30
2023-07-24T07:41:07.452Z,9.50
2023-07-24T07:43:33.901Z,8.63
2023-07-24T07:46:00.443Z,9.52
2023-07-24T07:48:26.941Z,10.38
2023-07-24T07:50:53.386Z,12.85
2023-07-24T07:53:19.830Z,9.27
2023-07-24T07:55:46.390Z,11.60
2023-07-24T07:58:12.793Z,10.18
2023-07-24T08:00:40.767Z,11.88
2023-07-24T08:03:07.407Z,12.85
2023-07-24T08:05:33.942Z,12.02
2023-07-24T08:08:00.318Z,15.35
2023-07-24T08:10:26.813Z,11.45
2023-07-24T08:12:53.183Z,13.80
2023-07-24T08:15:19.572Z,13.85
2023-07-24T08:17:46.088Z,9.55
2023-07-24T08:20:12.617Z,10.90
2023-07-24T08:22:39.101Z,11.75
2023-07-24T08:25:05.903Z,12.52
2023-07-24T08:27:33.604Z,12.15
2023-07-24T08:30:02.558Z,12.47
2023-07-24T08:32:29.369Z,11.88
2023-07-24T08:34:55.785Z,10.98
2023-07-24T08:37:22.132Z,10.60
2023-07-24T08:39:48.517Z,13.90
2023-07-24T08:42:15.184Z,12.02
2023-07-24T08:44:43.287Z,14.30
2023-07-24T08:47:11.936Z,10.57
2023-07-24T08:49:41.236Z,10.52
2023-07-24T08:52:10.622Z,9.60
2023-07-24T08:54:39.776Z,11.73
2023-07-24T08:57:09.384Z,8.98
2023-07-24T08:59:36.128Z,9.50
2023-07-24T09:02:02.773Z,9.90
2023-07-24T09:04:30.141Z,10.98
2023-07-24T09:06:58.990Z,9.80
2023-07-24T09:09:31.445Z,8.45
2023-07-24T09:11:59.373Z,8.50
2023-07-24T09:14:29.658Z,11.30
2023-07-24T09:17:05.238Z,8.45
2023-07-24T09:19:32.765Z,7.45
2023-07-24T09:22:16.066Z,8.32
2023-07-24T09:24:56.873Z,7.93
2023-07-24T09:27:29.775Z,4.57
2023-07-24T09:29:57.128Z,9.27
2023-07-24T09:32:25.439Z,7.32
2023-07-24T09:34:52.269Z,5.35
2023-07-24T09:37:24.503Z,6.07
2023-07-24T09:39:50.885Z,5.00
2023-07-24T09:42:17.390Z,4.50
2023-07-24T09:44:43.814Z,6.90
2023-07-24T09:47:32.174Z,6.35
2023-07-24T09:49:57.264Z,6.55
2023-07-24T09:52:25.154Z,4.50
2023-07-24T09:55:20.400Z,4.95
2023-07-24T09:57:47.784Z,7.57
2023-07-24T10:00:15.210Z,6.65
2023-07-24T10:02:42.214Z,7.85
2023-07-24T10:05:09.080Z,5.72
2023-07-24T10:07:36.103Z,6.20
2023-07-24T10:10:02.780Z,7.25
2023-07-24T10:12:31.503Z,6.60
2023-07-24T10:14:58.780Z,5.18
2023-07-24T10:17:35.864Z,7.68
2023-07-24T10:20:05.290Z,6.93
2023-07-24T10:22:31.754Z,6.57
2023-07-24T10:24:58.819Z,7.13
2023-07-24T10:27:26.058Z,7.78
2023-07-24T10:30:22.742Z,4.60
2023-07-24T10:32:56.072Z,4.65
2023-07-24T10:35:24.110Z,5.85
2023-07-24T10:38:01.031Z,5.72
2023-07-24T10:40:27.623Z,4.25
2023-07-24T10:43:01.586Z,6.13
2023-07-24T10:45:39.572Z,6.25
2023-07-24T10:48:06.431Z,5.18
2023-07-24T10:50:44.347Z,6.53
2023-07-24T10:53:12.213Z,7.80
2023-07-24T10:55:39.291Z,8.60
2023-07-24T10:58:07.094Z,6.25
2023-07-24T11:00:33.645Z,6.15
2023-07-24T11:03:00.095Z,7.20
2023-07-24T11:05:26.662Z,6.07
2023-07-24T11:07:53.058Z,6.45
2023-07-24T11:10:23.898Z,6.97
2023-07-24T11:12:52.300Z,6.00
2023-07-24T11:15:26.217Z,7.28
2023-07-24T11:17:52.595Z,5.20
2023-07-24T11:20:19.572Z,6.50
2023-07-24T11:22:45.962Z,6.32
2023-07-24T11:25:12.580Z,3.83
2023-07-24T11:27:45.012Z,5.60
2023-07-24T11:30:20.854Z,5.18
2023-07-24T11:32:47.888Z,6.38
2023-07-24T11:35:14.923Z,5.68
2023-07-24T11:37:41.596Z,5.93
2023-07-24T11:40:13.679Z,3.97
2023-07-24T11:42:41.472Z,6.00
2023-07-24T11:45:12.414Z,4.97
2023-07-24T11:47:47.119Z,7.55
2023-07-24T11:50:14.445Z,3.50
2023-07-24T11:52:51.381Z,6.05
2023-07-24T11:55:32.344Z,4.70
2023-07-24T11:58:04.281Z,4.10
2023-07-24T12:00:36.428Z,4.88
2023-07-24T12:03:06.254Z,5.43
2023-07-24T12:05:44.085Z,4.68
2023-07-24T12:08:11.833Z,5.03
2023-07-24T12:10:40.542Z,5.65
2023-07-24T12:13:07.948Z,6.35
2023-07-24T12:15:36.248Z,2.95
2023-07-24T12:20:32.180Z,4.25
2023-07-24T12:22:59.009Z,4.38
2023-07-24T12:25:25.575Z,3.08
2023-07-24T12:27:51.971Z,5.72
2023-07-24T12:30:18.775Z,4.10
2023-07-24T12:32:45.181Z,4.68
2023-07-24T12:35:13.607Z,6.25
2023-07-24T12:37:41.285Z,5.50
2023-07-24T12:40:08.607Z,7.63
2023-07-24T12:42:35.621Z,6.22
2023-07-24T12:45:04.677Z,4.95
2023-07-24T12:47:32.861Z,6.72
2023-07-24T12:50:00.125Z,5.53
2023-07-24T12:52:27.512Z,6.40
2023-07-24T12:55:01.623Z,8.88
2023-07-24T12:57:29.174Z,5.72
2023-07-24T12:59:55.571Z,4.50
2023-07-24T13:02:22.000Z,7.55
2023-07-24T13:04:48.412Z,7.97
2023-07-24T13:07:14.905Z,8.45
2023-07-24T13:09:41.292Z,8.02
2023-07-24T13:12:09.185Z,8.45
2023-07-24T13:14:35.610Z,6.30
2023-07-24T13:17:02.149Z,10.48
2023-07-24T13:19:28.590Z,6.70
2023-07-24T13:21:55.053Z,8.70
2023-07-24T13:24:21.440Z,7.50
2023-07-24T13:26:47.853Z,6.90
2023-07-24T13:29:14.423Z,6.00
2023-07-24T13:31:41.629Z,6.50
2023-07-24T13:34:09.294Z,6.15
2023-07-24T13:36:35.654Z,5.38
2023-07-24T13:39:02.203Z,5.05
2023-07-24T13:41:29.005Z,4.75
2023-07-24T13:43:56.565Z,5.78
2023-07-24T13:46:23.030Z,8.20
2023-07-24T13:48:49.421Z,5.53
2023-07-24T13:51:15.844Z,4.82
2023-07-24T13:53:42.188Z,4.32
2023-07-24T13:56:08.651Z,5.57
2023-07-24T13:58:35.034Z,3.65
2023-07-24T14:01:01.534Z,4.40
2023-07-24T14:03:30.477Z,4.32
2023-07-24T14:05:57.834Z,5.68
2023-07-24T14:08:24.355Z,3.03
2023-07-24T14:10:50.962Z,5.00
2023-07-24T14:13:17.753Z,6.15
2023-07-24T14:15:44.214Z,4.40
2023-07-24T14:18:10.635Z,4.28
2023-07-24T14:20:38.306Z,4.88
2023-07-24T14:23:04.737Z,6.15
2023-07-24T14:25:31.292Z,6.03
2023-07-24T14:27:57.705Z,4.30
2023-07-24T14:30:24.089Z,6.72
2023-07-24T14:32:51.618Z,6.25
2023-07-24T14:35:18.074Z,7.78
2023-07-24T14:37:44.464Z,9.13
2023-07-24T14:40:12.869Z,8.48
2023-07-24T14:42:39.269Z,5.68
2023-07-24T14:45:06.374Z,8.55
2023-07-24T14:47:33.047Z,7.00
2023-07-24T14:49:59.869Z,8.15
2023-07-24T14:52:26.277Z,10.32
2023-07-24T14:54:52.695Z,8.27
2023-07-24T14:57:25.565Z,10.32
2023-07-24T14:59:53.340Z,13.00
2023-07-24T15:02:19.890Z,7.93
2023-07-24T15:04:46.583Z,9.70
2023-07-24T15:07:12.990Z,9.50
2023-07-24T15:09:39.370Z,9.52
2023-07-24T15:12:06.428Z,7.07
2023-07-24T15:14:32.904Z,6.78
2023-07-24T15:16:59.329Z,7.97
2023-07-24T15:19:25.696Z,8.13
2023-07-24T15:21:52.066Z,7.07
2023-07-24T15:24:19.229Z,7.50
2023-07-24T15:26:46.469Z,6.03
2023-07-24T15:29:17.172Z,8.38
2023-07-24T15:31:45.421Z,7.55
2023-07-24T15:34:11.848Z,11.45
2023-07-24T15:36:38.424Z,10.63
2023-07-24T15:39:05.572Z,11.70
2023-07-24T15:41:33.088Z,7.53
2023-07-24T15:44:00.311Z,10.18
2023-07-24T15:46:29.599Z,9.13
2023-07-24T15:48:57.768Z,7.93
2023-07-24T15:51:26.335Z,10.23
2023-07-24T15:53:53.656Z,7.07
2023-07-24T15:56:20.741Z,7.25
2023-07-24T15:58:47.936Z,7.93
2023-07-24T16:01:14.353Z,8.02
2023-07-24T16:03:41.034Z,9.00
2023-07-24T16:06:07.842Z,8.07
2023-07-24T16:08:34.288Z,8.32
2023-07-24T16:11:00.762Z,7.32
2023-07-24T16:13:27.272Z,7.00
2023-07-24T16:15:53.677Z,7.10
2023-07-24T16:18:24.582Z,7.68
2023-07-24T16:23:17.590Z,8.07
2023-07-24T16:25:43.976Z,7.55
2023-07-24T16:28:10.369Z,9.25
2023-07-24T16:30:36.808Z,9.30
2023-07-24T16:33:03.365Z,7.15
2023-07-24T16:35:29.896Z,6.40
2023-07-24T16:37:56.314Z,7.20
2023-07-24T16:40:22.722Z,9.65
2023-07-24T16:42:51.748Z,7.22
2023-07-24T16:47:52.106Z,6.15
2023-07-24T16:50:18.679Z,8.23
2023-07-24T16:52:45.035Z,7.07
2023-07-24T16:55:12.013Z,6.38
2023-07-24T16:57:39.122Z,9.48
2023-07-24T17:00:06.632Z,5.28
2023-07-24T17:02:34.383Z,5.65
2023-07-24T17:05:00.873Z,5.03
2023-07-24T17:07:27.271Z,5.68
2023-07-24T17:09:53.688Z,7.85
2023-07-24T17:12:20.037Z,4.45
2023-07-24T17:14:46.718Z,4.65
2023-07-24T17:17:13.860Z,8.00
2023-07-24T17:19:42.781Z,4.63
2023-07-24T17:22:09.584Z,4.53
2023-07-24T17:24:36.073Z,3.95
2023-07-24T17:27:02.538Z,2.95
2023-07-24T17:29:28.904Z,1.67
2023-07-24T17:31:55.447Z,4.05
2023-07-24T17:34:21.835Z,3.10
2023-07-24T17:36:48.198Z,3.10
2023-07-24T17:39:14.729Z,3.22
2023-07-24T17:41:41.148Z,4.13
2023-07-24T17:44:07.590Z,2.83
2023-07-24T17:46:34.026Z,2.65
2023-07-24T17:49:00.620Z,3.28
2023-07-24T17:51:27.141Z,3.40
2023-07-24T17:53:53.583Z,5.57
2023-07-24T17:56:19.976Z,4.75
2023-07-24T17:58:46.373Z,2.38
2023-07-24T18:01:12.964Z,5.82
2023-07-24T18:03:39.392Z,1.02
2023-07-24T18:06:05.949Z,2.03
2023-07-24T18:08:32.459Z,2.38
2023-07-24T18:10:58.975Z,2.10
2023-07-24T18:13:25.434Z,0.93
2023-07-24T18:15:51.810Z,2.20
2023-07-24T18:18:18.230Z,2.70
2023-07-24T18:20:44.724Z,3.22
2023-07-24T18:23:11.570Z,3.55
2023-07-24T18:25:38.098Z,4.13
2023-07-24T18:28:04.752Z,2.17
2023-07-24T18:30:31.530Z,2.08
2023-07-24T18:32:58.897Z,1.58
2023-07-24T18:35:26.078Z,2.20
2023-07-24T18:37:52.722Z,3.00
2023-07-24T18:40:19.212Z,3.25
2023-07-24T18:42:45.605Z,2.15
2023-07-24T18:45:12.083Z,2.80
2023-07-24T18:47:38.559Z,2.85
2023-07-24T18:50:05.507Z,2.10
2023-07-24T18:52:31.881Z,1.10
2023-07-24T18:55:00.242Z,2.83
2023-07-24T18:57:26.768Z,1.63
2023-07-24T18:59:53.369Z,2.83
2023-07-24T19:02:19.939Z,2.85
2023-07-24T19:04:46.370Z,2.67
2023-07-24T19:07:12.742Z,3.72
2023-07-24T19:09:39.136Z,5.18
2023-07-24T19:12:06.116Z,4.18
2023-07-24T19:14:32.593Z,3.05
2023-07-24T19:16:58.969Z,5.15
2023-07-24T19:19:25.424Z,1.13
2023-07-24T19:21:51.873Z,3.45
2023-07-24T19:24:18.316Z,1.35
2023-07-24T19:26:44.701Z,1.30
2023-07-24T19:29:11.082Z,1.50
2023-07-24T19:31:37.604Z,1.50
2023-07-24T19:34:04.097Z,2.78
2023-07-24T19:36:30.633Z,3.58
2023-07-24T19:38:57.018Z,1.98
2023-07-24T19:41:23.927Z,3.80
2023-07-24T19:43:50.324Z,2.22
2023-07-24T19:46:16.808Z,1.95
2023-07-24T19:48:43.260Z,2.97
2023-07-24T19:51:10.366Z,3.92
2023-07-24T19:53:36.784Z,2.05
2023-07-24T19:56:03.217Z,2.63
2023-07-24T19:58:33.515Z,2.60
2023-07-24T20:03:27.747Z,1.63
2023-07-24T20:05:56.116Z,2.58
2023-07-24T20:08:23.554Z,1.20
2023-07-24T20:10:51.128Z,3.17
2023-07-24T20:13:18.176Z,2.15
2023-07-24T20:15:45.872Z,4.20
2023-07-24T20:18:12.676Z,3.30
2023-07-24T20:20:39.470Z,3.42
2023-07-24T20:23:06.025Z,2.53
2023-07-24T20:25:32.422Z,3.42
2023-07-24T20:27:58.872Z,1.67
2023-07-24T20:30:26.652Z,3.17
2023-07-24T20:32:53.045Z,2.22
2023-07-24T20:35:19.480Z,3.13
2023-07-24T20:37:47.652Z,4.22
2023-07-24T20:40:14.143Z,4.97
2023-07-24T20:42:40.592Z,4.00
2023-07-24T20:45:07.642Z,3.10
2023-07-24T20:47:34.072Z,4.07
2023-07-24T20:50:00.541Z,2.30
2023-07-24T20:52:26.942Z,5.13
2023-07-24T20:54:53.337Z,4.90
2023-07-24T20:57:19.781Z,4.00
2023-07-24T20:59:47.492Z,3.47
2023-07-24T21:02:14.377Z,4.55
2023-07-24T21:04:41.948Z,5.13
2023-07-24T21:07:11.049Z,4.53
2023-07-24T21:09:37.947Z,3.35
2023-07-24T21:12:05.825Z,5.97
2023-07-24T21:14:32.937Z,3.70
2023-07-24T21:17:01.819Z,5.13
2023-07-24T21:19:28.378Z,5.25
2023-07-24T21:21:54.828Z,3.53
2023-07-24T21:24:22.041Z,3.85
2023-07-24T21:26:48.858Z,2.47
2023-07-24T21:29:15.250Z,3.70
2023-07-24T21:31:42.168Z,3.67
2023-07-24T21:34:08.575Z,4.03
2023-07-24T21:36:34.969Z,6.50
2023-07-24T21:39:01.330Z,3.85
2023-07-24T21:41:30.792Z,4.70
2023-07-24T21:43:57.562Z,5.43
2023-07-24T21:46:24.305Z,5.13
2023-07-24T21:48:50.729Z,3.78
2023-07-24T21:51:17.125Z,3.47
2023-07-24T21:53:43.639Z,3.72
2023-07-24T21:56:10.016Z,15.43
2023-07-24T21:58:36.450Z,4.40
2023-07-24T22:01:02.908Z,6.72
2023-07-24T22:03:29.323Z,4.70
2023-07-24T22:05:56.032Z,5.30
2023-07-24T22:08:22.508Z,2.53
2023-07-24T22:10:49.516Z,2.45
2023-07-24T22:13:15.899Z,4.78
2023-07-24T22:15:42.625Z,2.97
2023-07-24T22:18:09.124Z,3.97
2023-07-24T22:20:41.262Z,6.22
2023-07-24T22:23:08.664Z,2.72
2023-07-24T22:25:35.066Z,6.70
2023-07-24T22:28:01.465Z,5.28
2023-07-24T22:30:27.978Z,4.70
2023-07-24T22:32:54.513Z,3.90
2023-07-24T22:35:21.045Z,3.88
2023-07-24T22:37:47.402Z,5.68
2023-07-24T22:40:13.974Z,5.82
2023-07-24T22:42:40.347Z,4.55
2023-07-24T22:45:07.135Z,7.50
2023-07-24T22:47:33.719Z,5.05
2023-07-24T22:50:00.225Z,4.47
2023-07-24T22:52:26.674Z,5.30
2023-07-24T22:54:54.687Z,6.07
2023-07-24T22:57:21.059Z,4.28
2023-07-24T22:59:47.507Z,5.28
2023-07-24T23:02:13.881Z,2.72
2023-07-24T23:04:40.293Z,6.55
2023-07-24T23:07:06.663Z,4.80
2023-07-24T23:09:35.065Z,6.43
2023-07-24T23:12:01.585Z,6.22
2023-07-24T23:14:27.979Z,5.00
2023-07-24T23:16:54.636Z,8.05
2023-07-24T23:19:21.131Z,4.22
2023-07-24T23:21:47.696Z,4.80
2023-07-24T23:24:14.098Z,6.93
2023-07-24T23:26:40.479Z,4.10
2023-07-24T23:29:06.922Z,7.82
2023-07-24T23:31:33.548Z,5.80
2023-07-24T23:34:00.432Z,7.78
2023-07-24T23:36:26.961Z,4.25
2023-07-24T23:38:53.368Z,5.90
2023-07-24T23:41:19.748Z,8.88
2023-07-24T23:43:46.177Z,6.28
2023-07-24T23:46:14.124Z,3.65
2023-07-24T23:48:41.519Z,6.55
2023-07-24T23:51:19.177Z,10.27
2023-07-24T23:53:46.329Z,5.35
2023-07-24T23:56:12.819Z,6.32
2023-07-24T23:58:39.216Z,8.65
